Time,TemperatureF,DewpointF,PressureIn,WindDirection,WindDirectionDegrees,WindSpeedMPH,WindSpeedGustMPH,Humidity,HourlyPrecipIn,Conditions,Clouds,dailyrainin,SoftwareType,DateUTC
2013-03-10 00:01:00,9.0,6.0,30.27,West,273,1.0,-999.0,88,-99.99,,,-99.99,,2013-03-10 07:01:00,
2013-03-10 00:11:00,9.0,6.0,30.27,West,273,1.0,-999.0,88,-99.99,,,-99.99,,2013-03-10 07:11:00,
2013-03-10 00:21:00,9.0,7.0,30.27,West,273,3.0,-999.0,92,-99.99,,,-99.99,,2013-03-10 07:21:00,
2013-03-10 00:31:00,9.0,7.0,30.27,West,273,3.0,-999.0,92,-99.99,,,-99.99,,2013-03-10 07:31:00,
2013-03-10 00:42:00,8.0,5.0,30.29,West,273,3.0,-999.0,89,-99.99,,,-99.99,,2013-03-10 07:42:00,
2013-03-10 00:52:00,8.0,5.0,30.29,West,273,3.0,-999.0,89,-99.99,,,-99.99,,2013-03-10 07:52:00,
2013-03-10 01:01:00,8.0,5.0,30.29,West,273,3.0,-999.0,89,-99.99,,,-99.99,,2013-03-10 08:01:00,
2013-03-10 01:11:00,8.0,5.0,30.29,West,273,3.0,-999.0,89,-99.99,,,-99.99,,2013-03-10 08:11:00,
2013-03-10 01:21:00,8.0,6.0,30.29,West,273,3.0,-999.0,91,-99.99,,,-99.99,,2013-03-10 08:21:00,
2013-03-10 01:30:00,9.0,7.0,30.29,West,273,2.0,-999.0,91,-99.99,,,-99.99,,2013-03-10 08:30:00,
2013-03-10 01:31:00,8.0,6.0,30.29,West,273,3.0,-999.0,91,-99.99,,,-99.99,,2013-03-10 08:31:00,
2013-03-10 01:42:00,8.0,6.0,30.29,West,273,3.0,-999.0,91,-99.99,,,-99.99,,2013-03-10 08:42:00,
2013-03-10 01:52:00,9.0,7.0,30.29,West,273,2.0,-999.0,91,-99.99,,,-99.99,,2013-03-10 08:52:00,
2013-03-10 03:01:00,9.0,7.0,30.29,West,273,2.0,-999.0,91,-99.99,,,-99.99,,2013-03-10 09:01:00,
2013-03-10 03:11:00,9.0,7.0,30.29,West,273,2.0,-999.0,91,-99.99,,,-99.99,,2013-03-10 09:11:00,
2013-03-10 03:21:00,9.0,7.0,30.29,West,273,2.0,-999.0,91,-99.99,,,-99.99,,2013-03-10 09:21:00,
2013-03-10 03:52:00,4.0,2.0,30.28,West,273,3.0,-999.0,90,-99.99,,,-99.99,,2013-03-10 09:52:00,
2013-03-10 04:01:00,4.0,2.0,30.28,West,273,3.0,-999.0,90,-99.99,,,-99.99,,2013-03-10 10:01:00,
2013-03-10 04:11:00,4.0,2.0,30.28,West,273,3.0,-999.0,90,-99.99,,,-99.99,,2013-03-10 10:11:00,
2013-03-10 04:21:00,4.0,2.0,30.28,West,273,3.0,-999.0,90,-99.99,,,-99.99,,2013-03-10 10:21:00,
2013-03-10 04:30:00,3.0,1.0,30.29,West,273,3.0,-999.0,89,-99.99,,,-99.99,,2013-03-10 10:30:00,
2013-03-10 04:32:00,4.0,2.0,30.28,West,273,3.0,-999.0,90,-99.99,,,-99.99,,2013-03-10 10:32:00,
2013-03-10 04:42:00,3.0,1.0,30.29,West,273,3.0,-999.0,89,-99.99,,,-99.99,,2013-03-10 10:42:00,
2013-03-10 04:52:00,3.0,1.0,30.29,West,273,3.0,-999.0,89,-99.99,,,-99.99,,2013-03-10 10:52:00,
2013-03-10 05:01:00,3.0,1.0,30.29,West,273,3.0,-999.0,89,-99.99,,,-99.99,,2013-03-10 11:01:00,
2013-03-10 05:12:00,3.0,1.0,30.29,West,273,3.0,-999.0,89,-99.99,,,-99.99,,2013-03-10 11:12:00,
2013-03-10 05:21:00,3.0,1.0,30.29,West,273,3.0,-999.0,89,-99.99,,,-99.99,,2013-03-10 11:21:00,
2013-03-10 05:52:00,5.0,3.0,30.28,West,273,2.0,-999.0,91,-99.99,,,-99.99,,2013-03-10 11:52:00,
2013-03-10 06:00:00,3.0,1.0,30.28,West,273,3.0,-999.0,90,-99.99,,,-99.99,,2013-03-10 12:00:00,
2013-03-10 06:01:00,5.0,3.0,30.28,West,273,2.0,-999.0,91,-99.99,,,-99.99,,2013-03-10 12:01:00,
2013-03-10 06:11:00,5.0,3.0,30.28,West,273,2.0,-999.0,91,-99.99,,,-99.99,,2013-03-10 12:11:00,
2013-03-10 06:21:00,3.0,1.0,30.28,West,273,3.0,-999.0,90,-99.99,,,-99.99,,2013-03-10 12:21:00,
2013-03-10 06:31:00,3.0,1.0,30.28,West,273,3.0,-999.0,90,-99.99,,,-99.99,,2013-03-10 12:31:00,
2013-03-10 06:42:00,3.0,1.0,30.28,West,273,3.0,-999.0,90,-99.99,,,-99.99,,2013-03-10 12:42:00,
2013-03-10 06:52:00,3.0,1.0,30.28,West,273,3.0,-999.0,90,-99.99,,,-99.99,,2013-03-10 12:52:00,
2013-03-10 07:52:00,2.0,0.0,30.30,West,273,1.0,-999.0,89,-99.99,,,-99.99,,2013-03-10 13:52:00,
2013-03-10 08:01:00,2.0,0.0,30.30,West,273,1.0,-999.0,89,-99.99,,,-99.99,,2013-03-10 14:01:00,
2013-03-10 08:11:00,2.0,0.0,30.30,West,273,1.0,-999.0,89,-99.99,,,-99.99,,2013-03-10 14:11:00,
2013-03-10 08:21:00,3.0,1.0,30.30,West,273,0.0,-999.0,89,-99.99,,,-99.99,,2013-03-10 14:21:00,
2013-03-10 08:32:00,3.0,1.0,30.30,West,273,0.0,-999.0,89,-99.99,,,-99.99,,2013-03-10 14:32:00,
2013-03-10 08:42:00,3.0,1.0,30.30,West,273,0.0,-999.0,89,-99.99,,,-99.99,,2013-03-10 14:42:00,
2013-03-10 08:52:00,4.0,2.0,30.31,West,273,1.0,-999.0,89,-99.99,,,-99.99,,2013-03-10 14:52:00,
2013-03-10 09:00:00,8.0,5.0,30.31,West,273,0.0,-999.0,89,-99.99,,,-99.99,,2013-03-10 15:00:00,
2013-03-10 09:01:00,4.0,2.0,30.31,West,273,1.0,-999.0,89,-99.99,,,-99.99,,2013-03-10 15:01:00,
2013-03-10 09:11:00,4.0,2.0,30.31,West,273,1.0,-999.0,89,-99.99,,,-99.99,,2013-03-10 15:11:00,
2013-03-10 09:21:00,8.0,5.0,30.31,West,273,0.0,-999.0,89,-99.99,,,-99.99,,2013-03-10 15:21:00,
2013-03-10 09:32:00,8.0,5.0,30.31,West,273,0.0,-999.0,89,-99.99,,,-99.99,,2013-03-10 15:32:00,
2013-03-10 09:42:00,8.0,5.0,30.31,West,273,0.0,-999.0,89,-99.99,,,-99.99,,2013-03-10 15:42:00,
2013-03-10 09:52:00,8.0,5.0,30.31,West,273,0.0,-999.0,89,-99.99,,,-99.99,,2013-03-10 15:52:00,
2013-03-10 10:22:00,13.0,10.0,30.30,West,273,0.0,-999.0,89,-99.99,,,-99.99,,2013-03-10 16:22:00,
2013-03-10 10:30:00,17.0,15.0,30.28,WSW,245,5.0,-999.0,90,-99.99,,,-99.99,,2013-03-10 16:30:00,
2013-03-10 10:32:00,13.0,10.0,30.30,West,273,0.0,-999.0,89,-99.99,,,-99.99,,2013-03-10 16:32:00,
2013-03-10 10:42:00,13.0,10.0,30.30,West,273,0.0,-999.0,89,-99.99,,,-99.99,,2013-03-10 16:42:00,
2013-03-10 10:52:00,17.0,15.0,30.28,WSW,245,5.0,-999.0,90,-99.99,,,-99.99,,2013-03-10 16:52:00,
2013-03-10 11:01:00,17.0,15.0,30.28,WSW,245,5.0,-999.0,90,-99.99,,,-99.99,,2013-03-10 17:01:00,
2013-03-10 11:11:00,17.0,15.0,30.28,WSW,245,5.0,-999.0,90,-99.99,,,-99.99,,2013-03-10 17:11:00,
2013-03-10 11:21:00,17.0,15.0,30.28,WSW,245,5.0,-999.0,90,-99.99,,,-99.99,,2013-03-10 17:21:00,
2013-03-10 11:30:00,22.0,18.0,30.28,SW,233,4.0,-999.0,84,-99.99,,,-99.99,,2013-03-10 17:30:00,
2013-03-10 11:51:00,22.0,18.0,30.28,SW,233,4.0,-999.0,84,-99.99,,,-99.99,,2013-03-10 17:51:00,
2013-03-10 12:01:00,22.0,18.0,30.28,SW,233,4.0,-999.0,84,-99.99,,,-99.99,,2013-03-10 18:01:00,
2013-03-10 12:11:00,22.0,18.0,30.28,SW,233,4.0,-999.0,84,-99.99,,,-99.99,,2013-03-10 18:11:00,
2013-03-10 12:21:00,22.0,18.0,30.28,SW,233,4.0,-999.0,84,-99.99,,,-99.99,,2013-03-10 18:21:00,
2013-03-10 12:30:00,24.0,20.0,30.26,SW,233,3.0,-999.0,83,-99.99,,,-99.99,,2013-03-10 18:30:00,
2013-03-10 12:52:00,24.0,20.0,30.26,SW,233,3.0,-999.0,83,-99.99,,,-99.99,,2013-03-10 18:52:00,
2013-03-10 13:01:00,24.0,20.0,30.26,SW,233,3.0,-999.0,83,-99.99,,,-99.99,,2013-03-10 19:01:00,
2013-03-10 13:11:00,24.0,20.0,30.26,SW,233,3.0,-999.0,83,-99.99,,,-99.99,,2013-03-10 19:11:00,
2013-03-10 13:21:00,24.0,20.0,30.26,SW,233,3.0,-999.0,83,-99.99,,,-99.99,,2013-03-10 19:21:00,
2013-03-10 13:53:00,27.0,23.0,30.22,SW,233,6.0,-999.0,84,-99.99,,,-99.99,,2013-03-10 19:53:00,
2013-03-10 14:00:00,29.0,24.0,30.21,SW,233,2.0,-999.0,81,-99.99,,,-99.99,,2013-03-10 20:00:00,
2013-03-10 14:02:00,27.0,23.0,30.22,SW,233,6.0,-999.0,84,-99.99,,,-99.99,,2013-03-10 20:02:00,
2013-03-10 14:12:00,27.0,23.0,30.22,SW,233,6.0,-999.0,84,-99.99,,,-99.99,,2013-03-10 20:12:00,
2013-03-10 14:22:00,29.0,24.0,30.21,SW,233,2.0,-999.0,81,-99.99,,,-99.99,,2013-03-10 20:22:00,
2013-03-10 14:32:00,29.0,24.0,30.21,SW,233,2.0,-999.0,81,-99.99,,,-99.99,,2013-03-10 20:32:00,
2013-03-10 14:43:00,29.0,24.0,30.21,SW,233,2.0,-999.0,81,-99.99,,,-99.99,,2013-03-10 20:43:00,
2013-03-10 14:53:00,29.0,24.0,30.21,SW,233,2.0,-999.0,81,-99.99,,,-99.99,,2013-03-10 20:53:00,
2013-03-10 15:00:00,31.0,24.0,30.17,SW,233,4.0,-999.0,76,-99.99,,,-99.99,,2013-03-10 21:00:00,
2013-03-10 15:23:00,31.0,24.0,30.17,SW,233,4.0,-999.0,76,-99.99,,,-99.99,,2013-03-10 21:23:00,
2013-03-10 15:33:00,31.0,24.0,30.17,SW,233,4.0,-999.0,76,-99.99,,,-99.99,,2013-03-10 21:33:00,
2013-03-10 15:43:00,31.0,24.0,30.17,SW,233,4.0,-999.0,76,-99.99,,,-99.99,,2013-03-10 21:43:00,
2013-03-10 15:53:00,31.0,24.0,30.17,SW,233,4.0,-999.0,76,-99.99,,,-99.99,,2013-03-10 21:53:00,
2013-03-10 16:22:00,31.0,25.0,30.14,SW,233,4.0,-999.0,77,-99.99,,,-99.99,,2013-03-10 22:22:00,
2013-03-10 16:30:00,32.0,26.0,30.13,SW,233,4.0,-999.0,78,-99.99,,,-99.99,,2013-03-10 22:30:00,
2013-03-10 16:32:00,31.0,25.0,30.14,SW,233,4.0,-999.0,77,-99.99,,,-99.99,,2013-03-10 22:32:00,
2013-03-10 16:43:00,31.0,25.0,30.14,SW,233,4.0,-999.0,77,-99.99,,,-99.99,,2013-03-10 22:43:00,
2013-03-10 16:53:00,32.0,26.0,30.13,SW,233,4.0,-999.0,78,-99.99,,,-99.99,,2013-03-10 22:53:00,
2013-03-10 17:02:00,32.0,26.0,30.13,SW,233,4.0,-999.0,78,-99.99,,,-99.99,,2013-03-10 23:02:00,
2013-03-10 17:12:00,32.0,26.0,30.13,SW,233,4.0,-999.0,78,-99.99,,,-99.99,,2013-03-10 23:12:00,
2013-03-10 17:22:00,32.0,26.0,30.13,SW,233,4.0,-999.0,78,-99.99,,,-99.99,,2013-03-10 23:22:00,
2013-03-10 17:52:00,31.0,26.0,30.09,SW,227,3.0,-999.0,80,-99.99,,,-99.99,,2013-03-10 23:52:00,
2013-03-10 18:00:00,29.0,25.0,30.09,SW,215,5.0,-999.0,83,-99.99,,,-99.99,,2013-03-11 00:00:00,
2013-03-10 18:02:00,31.0,26.0,30.09,SW,227,3.0,-999.0,80,-99.99,,,-99.99,,2013-03-11 00:02:00,
2013-03-10 18:12:00,31.0,26.0,30.09,SW,227,3.0,-999.0,80,-99.99,,,-99.99,,2013-03-11 00:12:00,
2013-03-10 18:22:00,29.0,25.0,30.09,SW,215,5.0,-999.0,83,-99.99,,,-99.99,,2013-03-11 00:22:00,
2013-03-10 18:33:00,29.0,25.0,30.09,SW,215,5.0,-999.0,83,-99.99,,,-99.99,,2013-03-11 00:33:00,
2013-03-10 18:43:00,29.0,25.0,30.09,SW,215,5.0,-999.0,83,-99.99,,,-99.99,,2013-03-11 00:43:00,
2013-03-10 18:53:00,29.0,25.0,30.09,SW,215,5.0,-999.0,83,-99.99,,,-99.99,,2013-03-11 00:53:00,
2013-03-10 19:00:00,24.0,22.0,30.07,SW,215,6.0,-999.0,90,-99.99,,,-99.99,,2013-03-11 01:00:00,
2013-03-10 19:23:00,24.0,22.0,30.07,SW,215,6.0,-999.0,90,-99.99,,,-99.99,,2013-03-11 01:23:00,
2013-03-10 19:33:00,24.0,22.0,30.07,SW,215,6.0,-999.0,90,-99.99,,,-99.99,,2013-03-11 01:33:00,
2013-03-10 19:43:00,24.0,22.0,30.07,SW,215,6.0,-999.0,90,-99.99,,,-99.99,,2013-03-11 01:43:00,
2013-03-10 19:53:00,24.0,22.0,30.07,SW,215,6.0,-999.0,90,-99.99,,,-99.99,,2013-03-11 01:53:00,
2013-03-10 20:00:00,23.0,21.0,30.04,SW,215,6.0,-999.0,92,-99.99,,,-99.99,,2013-03-11 02:00:00,
2013-03-10 20:23:00,23.0,21.0,30.04,SW,215,6.0,-999.0,92,-99.99,,,-99.99,,2013-03-11 02:23:00,
2013-03-10 20:32:00,23.0,21.0,30.04,SW,215,6.0,-999.0,92,-99.99,,,-99.99,,2013-03-11 02:32:00,
2013-03-10 20:42:00,23.0,21.0,30.04,SW,215,6.0,-999.0,92,-99.99,,,-99.99,,2013-03-11 02:42:00,
2013-03-10 20:52:00,23.0,21.0,30.04,SW,215,6.0,-999.0,92,-99.99,,,-99.99,,2013-03-11 02:52:00,
2013-03-10 21:00:00,25.0,22.0,30.02,SSW,211,4.0,-999.0,90,-99.99,,,-99.99,,2013-03-11 03:00:00,
2013-03-10 21:22:00,25.0,22.0,30.02,SSW,211,4.0,-999.0,90,-99.99,,,-99.99,,2013-03-11 03:22:00,
2013-03-10 21:32:00,25.0,22.0,30.02,SSW,211,4.0,-999.0,90,-99.99,,,-99.99,,2013-03-11 03:32:00,
2013-03-10 21:43:00,25.0,22.0,30.02,SSW,211,4.0,-999.0,90,-99.99,,,-99.99,,2013-03-11 03:43:00,
2013-03-10 21:53:00,25.0,22.0,30.02,SSW,211,4.0,-999.0,90,-99.99,,,-99.99,,2013-03-11 03:53:00,
2013-03-10 22:22:00,27.0,24.0,29.98,SSW,211,4.0,-999.0,88,-99.99,,,-99.99,,2013-03-11 04:22:00,
2013-03-10 22:33:00,27.0,24.0,29.98,SSW,211,4.0,-999.0,88,-99.99,,,-99.99,,2013-03-11 04:33:00,
2013-03-10 22:43:00,27.0,24.0,29.98,SSW,211,4.0,-999.0,88,-99.99,,,-99.99,,2013-03-11 04:43:00,
2013-03-10 22:53:00,29.0,25.0,29.97,South,184,6.0,-999.0,84,-99.99,,,-99.99,,2013-03-11 04:53:00,
2013-03-10 23:03:00,29.0,25.0,29.97,South,184,6.0,-999.0,84,-99.99,,,-99.99,,2013-03-11 05:03:00,
2013-03-10 23:12:00,29.0,25.0,29.97,South,184,6.0,-999.0,84,-99.99,,,-99.99,,2013-03-11 05:12:00,
2013-03-10 23:22:00,29.0,25.0,29.95,South,180,5.0,-999.0,84,-99.99,,,-99.99,,2013-03-11 05:22:00,
2013-03-10 23:32:00,29.0,25.0,29.95,South,180,5.0,-999.0,84,-99.99,,,-99.99,,2013-03-11 05:32:00,
2013-03-10 23:43:00,29.0,25.0,29.95,South,180,5.0,-999.0,84,-99.99,,,-99.99,,2013-03-11 05:43:00,
2013-03-10 23:52:00,30.0,25.0,29.93,South,177,5.0,-999.0,82,-99.99,,,-99.99,,2013-03-11 05:52:00,